Aviation Digital Data Service (ADDS)

Output produced by METARs form (0159 UTC 12 May 2021)
found at http://www.aviationweather.gov/metar/data/
 
METAR text: UKOO 120130Z 07003MPS CAVOK 12/10 Q1013 R16/090060 NOSIG
Conditions at: UKOO (ODESSA/TSENTRALN, UA) observed 0130 UTC 12 May 2021
Temperature: 12.0°C (54°F)
Dewpoint: 10.0°C (50°F) [RH = 88%]
Pressure (altimeter): 29.91 inches Hg (1013.0 mb)
Winds: from the ENE (70 degrees) at 7 MPH (6 knots; 3.1 m/s)
Visibility: 6 or more miles (10+ km)
Ceiling: ceiling and visibility are OK
Clouds: unknown
Weather: no significant weather observed at this time

METAR text: UKOO 120100Z 07004MPS 030V100 CAVOK 13/11 Q1013 R16/090060 NOSIG
Conditions at: UKOO (ODESSA/TSENTRALN, UA) observed 0100 UTC 12 May 2021
Temperature: 13.0°C (55°F)
Dewpoint: 11.0°C (52°F) [RH = 88%]
Pressure (altimeter): 29.91 inches Hg (1013.0 mb)
Winds: from the ENE (70 degrees) at 9 MPH (8 knots; 4.1 m/s)
Visibility: 6 or more miles (10+ km)
Ceiling: ceiling and visibility are OK
Clouds: unknown
Weather: no significant weather observed at this time

METAR text: UKOO 120030Z 07005MPS 050V110 CAVOK 13/11 Q1013 R16/090060 NOSIG
Conditions at: UKOO (ODESSA/TSENTRALN, UA) observed 0030 UTC 12 May 2021
Temperature: 13.0°C (55°F)
Dewpoint: 11.0°C (52°F) [RH = 88%]
Pressure (altimeter): 29.91 inches Hg (1013.0 mb)
Winds: from the ENE (70 degrees) at 12 MPH (10 knots; 5.1 m/s)
Visibility: 6 or more miles (10+ km)
Ceiling: ceiling and visibility are OK
Clouds: unknown
Weather: no significant weather observed at this time

METAR text: UKOO 120000Z 08003MPS CAVOK 14/10 Q1013 R16/090060 NOSIG
Conditions at: UKOO (ODESSA/TSENTRALN, UA) observed 0000 UTC 12 May 2021
Temperature: 14.0°C (57°F)
Dewpoint: 10.0°C (50°F) [RH = 77%]
Pressure (altimeter): 29.91 inches Hg (1013.0 mb)
Winds: from the E (80 degrees) at 7 MPH (6 knots; 3.1 m/s)
Visibility: 6 or more miles (10+ km)
Ceiling: ceiling and visibility are OK
Clouds: unknown
Weather: no significant weather observed at this time

METAR text: UKOO 112330Z 07003MPS CAVOK 14/11 Q1014 R16/090060 NOSIG
Conditions at: UKOO (ODESSA/TSENTRALN, UA) observed 2330 UTC 11 May 2021
Temperature: 14.0°C (57°F)
Dewpoint: 11.0°C (52°F) [RH = 82%]
Pressure (altimeter): 29.94 inches Hg (1014.0 mb)
Winds: from the ENE (70 degrees) at 7 MPH (6 knots; 3.1 m/s)
Visibility: 6 or more miles (10+ km)
Ceiling: ceiling and visibility are OK
Clouds: unknown
Weather: no significant weather observed at this time

METAR text: UKOO 112300Z 06003MPS 030V090 CAVOK 14/11 Q1014 R16/090060 NOSIG
Conditions at: UKOO (ODESSA/TSENTRALN, UA) observed 2300 UTC 11 May 2021
Temperature: 14.0°C (57°F)
Dewpoint: 11.0°C (52°F) [RH = 82%]
Pressure (altimeter): 29.94 inches Hg (1014.0 mb)
Winds: from the ENE (60 degrees) at 7 MPH (6 knots; 3.1 m/s)
Visibility: 6 or more miles (10+ km)
Ceiling: ceiling and visibility are OK
Clouds: unknown
Weather: no significant weather observed at this time

METAR text: UKOO 112230Z 08003MPS CAVOK 14/11 Q1014 R16/090060 NOSIG
Conditions at: UKOO (ODESSA/TSENTRALN, UA) observed 2230 UTC 11 May 2021
Temperature: 14.0°C (57°F)
Dewpoint: 11.0°C (52°F) [RH = 82%]
Pressure (altimeter): 29.94 inches Hg (1014.0 mb)
Winds: from the E (80 degrees) at 7 MPH (6 knots; 3.1 m/s)
Visibility: 6 or more miles (10+ km)
Ceiling: ceiling and visibility are OK
Clouds: unknown
Weather: no significant weather observed at this time

METAR text: UKOO 112200Z 08005MPS 050V120 CAVOK 14/10 Q1014 R16/090060 NOSIG
Conditions at: UKOO (ODESSA/TSENTRALN, UA) observed 2200 UTC 11 May 2021
Temperature: 14.0°C (57°F)
Dewpoint: 10.0°C (50°F) [RH = 77%]
Pressure (altimeter): 29.94 inches Hg (1014.0 mb)
Winds: from the E (80 degrees) at 12 MPH (10 knots; 5.1 m/s)
Visibility: 6 or more miles (10+ km)
Ceiling: ceiling and visibility are OK
Clouds: unknown
Weather: no significant weather observed at this time

METAR text: UKOO 112130Z 07004MPS CAVOK 14/10 Q1014 R16/090060 NOSIG
Conditions at: UKOO (ODESSA/TSENTRALN, UA) observed 2130 UTC 11 May 2021
Temperature: 14.0°C (57°F)
Dewpoint: 10.0°C (50°F) [RH = 77%]
Pressure (altimeter): 29.94 inches Hg (1014.0 mb)
Winds: from the ENE (70 degrees) at 9 MPH (8 knots; 4.1 m/s)
Visibility: 6 or more miles (10+ km)
Ceiling: ceiling and visibility are OK
Clouds: unknown
Weather: no significant weather observed at this time

METAR text: UKOO 112100Z 07004MPS CAVOK 15/10 Q1015 R16/090060 NOSIG
Conditions at: UKOO (ODESSA/TSENTRALN, UA) observed 2100 UTC 11 May 2021
Temperature: 15.0°C (59°F)
Dewpoint: 10.0°C (50°F) [RH = 72%]
Pressure (altimeter): 29.97 inches Hg (1015.0 mb)
Winds: from the ENE (70 degrees) at 9 MPH (8 knots; 4.1 m/s)
Visibility: 6 or more miles (10+ km)
Ceiling: ceiling and visibility are OK
Clouds: unknown
Weather: no significant weather observed at this time

METAR text: UKOO 112030Z 07005MPS CAVOK 15/10 Q1015 R16/090060 NOSIG
Conditions at: UKOO (ODESSA/TSENTRALN, UA) observed 2030 UTC 11 May 2021
Temperature: 15.0°C (59°F)
Dewpoint: 10.0°C (50°F) [RH = 72%]
Pressure (altimeter): 29.97 inches Hg (1015.0 mb)
Winds: from the ENE (70 degrees) at 12 MPH (10 knots; 5.1 m/s)
Visibility: 6 or more miles (10+ km)
Ceiling: ceiling and visibility are OK
Clouds: unknown
Weather: no significant weather observed at this time

METAR text: UKOO 112000Z 10005MPS 9999 FEW///CB 15/11 Q1014 R16/090060 NOSIG
Conditions at: UKOO (ODESSA/TSENTRALN, UA) observed 2000 UTC 11 May 2021
Temperature: 15.0°C (59°F)
Dewpoint: 11.0°C (52°F) [RH = 77%]
Pressure (altimeter): 29.94 inches Hg (1014.0 mb)
Winds: from the E (100 degrees) at 12 MPH (10 knots; 5.1 m/s)
Visibility: 6 or more miles (10+ km)
Ceiling: unknown
Clouds: missing
Weather: no significant weather observed at this time

METAR text: UKOO 111930Z 10007MPS 9999 FEW///CB 16/11 Q1015 R16/090060 NOSIG
Conditions at: UKOO (ODESSA/TSENTRALN, UA) observed 1930 UTC 11 May 2021
Temperature: 16.0°C (61°F)
Dewpoint: 11.0°C (52°F) [RH = 72%]
Pressure (altimeter): 29.97 inches Hg (1015.0 mb)
Winds: from the E (100 degrees) at 16 MPH (14 knots; 7.2 m/s)
Visibility: 6 or more miles (10+ km)
Ceiling: unknown
Clouds: missing
Weather: no significant weather observed at this time

METAR text: UKOO 111900Z 07006MPS 9999 FEW///CB 16/11 Q1015 R16/090060 NOSIG
Conditions at: UKOO (ODESSA/TSENTRALN, UA) observed 1900 UTC 11 May 2021
Temperature: 16.0°C (61°F)
Dewpoint: 11.0°C (52°F) [RH = 72%]
Pressure (altimeter): 29.97 inches Hg (1015.0 mb)
Winds: from the ENE (70 degrees) at 14 MPH (12 knots; 6.2 m/s)
Visibility: 6 or more miles (10+ km)
Ceiling: unknown
Clouds: missing
Weather: no significant weather observed at this time

METAR text: UKOO 111830Z 08008MPS 040V100 9999 FEW///CB 16/11 Q1014 R16/090060 NOSIG
Conditions at: UKOO (ODESSA/TSENTRALN, UA) observed 1830 UTC 11 May 2021
Temperature: 16.0°C (61°F)
Dewpoint: 11.0°C (52°F) [RH = 72%]
Pressure (altimeter): 29.94 inches Hg (1014.0 mb)
Winds: from the E (80 degrees) at 18 MPH (16 knots; 8.2 m/s)
Visibility: 6 or more miles (10+ km)
Ceiling: unknown
Clouds: missing
Weather: no significant weather observed at this time

METAR text: UKOO 111813Z 07008MPS 040V110 9999 FEW///CB 18/11 Q1014 R16/090060 NOSIG
Conditions at: UKOO (ODESSA/TSENTRALN, UA) observed 1813 UTC 11 May 2021
Temperature: 18.0°C (64°F)
Dewpoint: 11.0°C (52°F) [RH = 64%]
Pressure (altimeter): 29.94 inches Hg (1014.0 mb)
Winds: from the ENE (70 degrees) at 18 MPH (16 knots; 8.2 m/s)
Visibility: 6 or more miles (10+ km)
Ceiling: unknown
Clouds: missing
Weather: no significant weather observed at this time

METAR text: UKOO 111800Z 08003MPS 9999 FEW///CB 18/10 Q1014 R16/090060 NOSIG
Conditions at: UKOO (ODESSA/TSENTRALN, UA) observed 1800 UTC 11 May 2021
Temperature: 18.0°C (64°F)
Dewpoint: 10.0°C (50°F) [RH = 59%]
Pressure (altimeter): 29.94 inches Hg (1014.0 mb)
Winds: from the E (80 degrees) at 7 MPH (6 knots; 3.1 m/s)
Visibility: 6 or more miles (10+ km)
Ceiling: unknown
Clouds: missing
Weather: no significant weather observed at this time

METAR text: UKOO 111730Z 09003MPS 9999 FEW///CB 20/09 Q1014 R34/090060 NOSIG
Conditions at: UKOO (ODESSA/TSENTRALN, UA) observed 1730 UTC 11 May 2021
Temperature: 20.0°C (68°F)
Dewpoint: 9.0°C (48°F) [RH = 49%]
Pressure (altimeter): 29.94 inches Hg (1014.0 mb)
Winds: from the E (90 degrees) at 7 MPH (6 knots; 3.1 m/s)
Visibility: 6 or more miles (10+ km)
Ceiling: unknown
Clouds: missing
Weather: no significant weather observed at this time

METAR text: UKOO 111700Z 35004MPS 9999 FEW///CB 21/09 Q1013 R34/090060 NOSIG
Conditions at: UKOO (ODESSA/TSENTRALN, UA) observed 1700 UTC 11 May 2021
Temperature: 21.0°C (70°F)
Dewpoint: 9.0°C (48°F) [RH = 46%]
Pressure (altimeter): 29.91 inches Hg (1013.0 mb)
Winds: from the N (350 degrees) at 9 MPH (8 knots; 4.1 m/s)
Visibility: 6 or more miles (10+ km)
Ceiling: unknown
Clouds: missing
Weather: no significant weather observed at this time

METAR text: UKOO 111630Z 35005MPS 9999 FEW///CB 22/09 Q1013 R34/090060 NOSIG
Conditions at: UKOO (ODESSA/TSENTRALN, UA) observed 1630 UTC 11 May 2021
Temperature: 22.0°C (72°F)
Dewpoint: 9.0°C (48°F) [RH = 43%]
Pressure (altimeter): 29.91 inches Hg (1013.0 mb)
Winds: from the N (350 degrees) at 12 MPH (10 knots; 5.1 m/s)
Visibility: 6 or more miles (10+ km)
Ceiling: unknown
Clouds: missing
Weather: no significant weather observed at this time

METAR text: UKOO 111600Z 34006MPS 9999 FEW///CB 23/09 Q1014 R34/090060 NOSIG
Conditions at: UKOO (ODESSA/TSENTRALN, UA) observed 1600 UTC 11 May 2021
Temperature: 23.0°C (73°F)
Dewpoint: 9.0°C (48°F) [RH = 41%]
Pressure (altimeter): 29.94 inches Hg (1014.0 mb)
Winds: from the NNW (340 degrees) at 14 MPH (12 knots; 6.2 m/s)
Visibility: 6 or more miles (10+ km)
Ceiling: unknown
Clouds: missing
Weather: no significant weather observed at this time

METAR text: UKOO 111530Z 34006MPS 9999 FEW///CB 23/08 Q1014 R34/090060 NOSIG
Conditions at: UKOO (ODESSA/TSENTRALN, UA) observed 1530 UTC 11 May 2021
Temperature: 23.0°C (73°F)
Dewpoint: 8.0°C (46°F) [RH = 38%]
Pressure (altimeter): 29.94 inches Hg (1014.0 mb)
Winds: from the NNW (340 degrees) at 14 MPH (12 knots; 6.2 m/s)
Visibility: 6 or more miles (10+ km)
Ceiling: unknown
Clouds: missing
Weather: no significant weather observed at this time

METAR text: UKOO 111500Z 33007MPS CAVOK 24/07 Q1014 R34/090060 NOSIG
Conditions at: UKOO (ODESSA/TSENTRALN, UA) observed 1500 UTC 11 May 2021
Temperature: 24.0°C (75°F)
Dewpoint: 7.0°C (45°F) [RH = 34%]
Pressure (altimeter): 29.94 inches Hg (1014.0 mb)
Winds: from the NNW (330 degrees) at 16 MPH (14 knots; 7.2 m/s)
Visibility: 6 or more miles (10+ km)
Ceiling: ceiling and visibility are OK
Clouds: unknown
Weather: no significant weather observed at this time

METAR text: UKOO 111430Z 33007MPS 310V010 CAVOK 24/09 Q1014 R34/090060 NOSIG
Conditions at: UKOO (ODESSA/TSENTRALN, UA) observed 1430 UTC 11 May 2021
Temperature: 24.0°C (75°F)
Dewpoint: 9.0°C (48°F) [RH = 38%]
Pressure (altimeter): 29.94 inches Hg (1014.0 mb)
Winds: from the NNW (330 degrees) at 16 MPH (14 knots; 7.2 m/s)
Visibility: 6 or more miles (10+ km)
Ceiling: ceiling and visibility are OK
Clouds: unknown
Weather: no significant weather observed at this time

METAR text: UKOO 111400Z 34007MPS 300V020 CAVOK 24/08 Q1014 R34/090060 NOSIG
Conditions at: UKOO (ODESSA/TSENTRALN, UA) observed 1400 UTC 11 May 2021
Temperature: 24.0°C (75°F)
Dewpoint: 8.0°C (46°F) [RH = 36%]
Pressure (altimeter): 29.94 inches Hg (1014.0 mb)
Winds: from the NNW (340 degrees) at 16 MPH (14 knots; 7.2 m/s)
Visibility: 6 or more miles (10+ km)
Ceiling: ceiling and visibility are OK
Clouds: unknown
Weather: no significant weather observed at this time

METAR text: UKOO 111330Z 32008MPS CAVOK 24/07 Q1015 R34/090060 NOSIG
Conditions at: UKOO (ODESSA/TSENTRALN, UA) observed 1330 UTC 11 May 2021
Temperature: 24.0°C (75°F)
Dewpoint: 7.0°C (45°F) [RH = 34%]
Pressure (altimeter): 29.97 inches Hg (1015.0 mb)
Winds: from the NW (320 degrees) at 18 MPH (16 knots; 8.2 m/s)
Visibility: 6 or more miles (10+ km)
Ceiling: ceiling and visibility are OK
Clouds: unknown
Weather: no significant weather observed at this time

METAR text: UKOO 111300Z 34008MPS CAVOK 24/08 Q1015 R34/090060 NOSIG
Conditions at: UKOO (ODESSA/TSENTRALN, UA) observed 1300 UTC 11 May 2021
Temperature: 24.0°C (75°F)
Dewpoint: 8.0°C (46°F) [RH = 36%]
Pressure (altimeter): 29.97 inches Hg (1015.0 mb)
Winds: from the NNW (340 degrees) at 18 MPH (16 knots; 8.2 m/s)
Visibility: 6 or more miles (10+ km)
Ceiling: ceiling and visibility are OK
Clouds: unknown
Weather: no significant weather observed at this time

METAR text: UKOO 111230Z 34008MPS 290V010 CAVOK 23/07 Q1015 R34/090060 NOSIG
Conditions at: UKOO (ODESSA/TSENTRALN, UA) observed 1230 UTC 11 May 2021
Temperature: 23.0°C (73°F)
Dewpoint: 7.0°C (45°F) [RH = 36%]
Pressure (altimeter): 29.97 inches Hg (1015.0 mb)
Winds: from the NNW (340 degrees) at 18 MPH (16 knots; 8.2 m/s)
Visibility: 6 or more miles (10+ km)
Ceiling: ceiling and visibility are OK
Clouds: unknown
Weather: no significant weather observed at this time

METAR text: UKOO 111200Z 32007MPS 300V010 CAVOK 23/07 Q1015 R34/090060 NOSIG
Conditions at: UKOO (ODESSA/TSENTRALN, UA) observed 1200 UTC 11 May 2021
Temperature: 23.0°C (73°F)
Dewpoint: 7.0°C (45°F) [RH = 36%]
Pressure (altimeter): 29.97 inches Hg (1015.0 mb)
Winds: from the NW (320 degrees) at 16 MPH (14 knots; 7.2 m/s)
Visibility: 6 or more miles (10+ km)
Ceiling: ceiling and visibility are OK
Clouds: unknown
Weather: no significant weather observed at this time

METAR text: UKOO 111130Z 32007MPS CAVOK 23/07 Q1016 R34/090060 NOSIG
Conditions at: UKOO (ODESSA/TSENTRALN, UA) observed 1130 UTC 11 May 2021
Temperature: 23.0°C (73°F)
Dewpoint: 7.0°C (45°F) [RH = 36%]
Pressure (altimeter): 30.00 inches Hg (1016.0 mb)
Winds: from the NW (320 degrees) at 16 MPH (14 knots; 7.2 m/s)
Visibility: 6 or more miles (10+ km)
Ceiling: ceiling and visibility are OK
Clouds: unknown
Weather: no significant weather observed at this time

METAR text: UKOO 111100Z 33007MPS 300V010 CAVOK 23/06 Q1016 R34/090060 NOSIG
Conditions at: UKOO (ODESSA/TSENTRALN, UA) observed 1100 UTC 11 May 2021
Temperature: 23.0°C (73°F)
Dewpoint: 6.0°C (43°F) [RH = 33%]
Pressure (altimeter): 30.00 inches Hg (1016.0 mb)
Winds: from the NNW (330 degrees) at 16 MPH (14 knots; 7.2 m/s)
Visibility: 6 or more miles (10+ km)
Ceiling: ceiling and visibility are OK
Clouds: unknown
Weather: no significant weather observed at this time

METAR text: UKOO 111030Z 33007MPS CAVOK 22/05 Q1016 R34/090060 NOSIG
Conditions at: UKOO (ODESSA/TSENTRALN, UA) observed 1030 UTC 11 May 2021
Temperature: 22.0°C (72°F)
Dewpoint: 5.0°C (41°F) [RH = 33%]
Pressure (altimeter): 30.00 inches Hg (1016.0 mb)
Winds: from the NNW (330 degrees) at 16 MPH (14 knots; 7.2 m/s)
Visibility: 6 or more miles (10+ km)
Ceiling: ceiling and visibility are OK
Clouds: unknown
Weather: no significant weather observed at this time

METAR text: UKOO 111000Z 32007MPS 280V350 CAVOK 21/04 Q1016 R34/090060 NOSIG
Conditions at: UKOO (ODESSA/TSENTRALN, UA) observed 1000 UTC 11 May 2021
Temperature: 21.0°C (70°F)
Dewpoint: 4.0°C (39°F) [RH = 33%]
Pressure (altimeter): 30.00 inches Hg (1016.0 mb)
Winds: from the NW (320 degrees) at 16 MPH (14 knots; 7.2 m/s)
Visibility: 6 or more miles (10+ km)
Ceiling: ceiling and visibility are OK
Clouds: unknown
Weather: no significant weather observed at this time

METAR text: UKOO 110930Z 32007MPS CAVOK 20/04 Q1017 R34/090060 NOSIG
Conditions at: UKOO (ODESSA/TSENTRALN, UA) observed 0930 UTC 11 May 2021
Temperature: 20.0°C (68°F)
Dewpoint: 4.0°C (39°F) [RH = 35%]
Pressure (altimeter): 30.03 inches Hg (1017.0 mb)
Winds: from the NW (320 degrees) at 16 MPH (14 knots; 7.2 m/s)
Visibility: 6 or more miles (10+ km)
Ceiling: ceiling and visibility are OK
Clouds: unknown
Weather: no significant weather observed at this time

METAR text: UKOO 110900Z 32008MPS CAVOK 19/00 Q1017 R34/090060 NOSIG
Conditions at: UKOO (ODESSA/TSENTRALN, UA) observed 0900 UTC 11 May 2021
Temperature: 19.0°C (66°F)
Dewpoint: 0.0°C (32°F) [RH = 28%]
Pressure (altimeter): 30.03 inches Hg (1017.0 mb)
Winds: from the NW (320 degrees) at 18 MPH (16 knots; 8.2 m/s)
Visibility: 6 or more miles (10+ km)
Ceiling: ceiling and visibility are OK
Clouds: unknown
Weather: no significant weather observed at this time

METAR text: UKOO 110830Z 34008MPS CAVOK 19/01 Q1018 R34/090060 NOSIG
Conditions at: UKOO (ODESSA/TSENTRALN, UA) observed 0830 UTC 11 May 2021
Temperature: 19.0°C (66°F)
Dewpoint: 1.0°C (34°F) [RH = 30%]
Pressure (altimeter): 30.06 inches Hg (1018.0 mb)
Winds: from the NNW (340 degrees) at 18 MPH (16 knots; 8.2 m/s)
Visibility: 6 or more miles (10+ km)
Ceiling: ceiling and visibility are OK
Clouds: unknown
Weather: no significant weather observed at this time

METAR text: UKOO 110800Z 34006MPS CAVOK 18/03 Q1018 R34/090060 NOSIG
Conditions at: UKOO (ODESSA/TSENTRALN, UA) observed 0800 UTC 11 May 2021
Temperature: 18.0°C (64°F)
Dewpoint: 3.0°C (37°F) [RH = 37%]
Pressure (altimeter): 30.06 inches Hg (1018.0 mb)
Winds: from the NNW (340 degrees) at 14 MPH (12 knots; 6.2 m/s)
Visibility: 6 or more miles (10+ km)
Ceiling: ceiling and visibility are OK
Clouds: unknown
Weather: no significant weather observed at this time

METAR text: UKOO 110730Z 34007MPS CAVOK 17/00 Q1018 R34/090060 NOSIG
Conditions at: UKOO (ODESSA/TSENTRALN, UA) observed 0730 UTC 11 May 2021
Temperature: 17.0°C (63°F)
Dewpoint: 0.0°C (32°F) [RH = 32%]
Pressure (altimeter): 30.06 inches Hg (1018.0 mb)
Winds: from the NNW (340 degrees) at 16 MPH (14 knots; 7.2 m/s)
Visibility: 6 or more miles (10+ km)
Ceiling: ceiling and visibility are OK
Clouds: unknown
Weather: no significant weather observed at this time

METAR text: UKOO 110700Z 34005MPS CAVOK 16/02 Q1019 R34/090060 NOSIG
Conditions at: UKOO (ODESSA/TSENTRALN, UA) observed 0700 UTC 11 May 2021
Temperature: 16.0°C (61°F)
Dewpoint: 2.0°C (36°F) [RH = 39%]
Pressure (altimeter): 30.09 inches Hg (1019.0 mb)
Winds: from the NNW (340 degrees) at 12 MPH (10 knots; 5.1 m/s)
Visibility: 6 or more miles (10+ km)
Ceiling: ceiling and visibility are OK
Clouds: unknown
Weather: no significant weather observed at this time

METAR text: UKOO 110630Z 34005MPS CAVOK 15/04 Q1019 R34/090060 NOSIG
Conditions at: UKOO (ODESSA/TSENTRALN, UA) observed 0630 UTC 11 May 2021
Temperature: 15.0°C (59°F)
Dewpoint: 4.0°C (39°F) [RH = 48%]
Pressure (altimeter): 30.09 inches Hg (1019.0 mb)
Winds: from the NNW (340 degrees) at 12 MPH (10 knots; 5.1 m/s)
Visibility: 6 or more miles (10+ km)
Ceiling: ceiling and visibility are OK
Clouds: unknown
Weather: no significant weather observed at this time

METAR text: UKOO 110600Z 34004MPS CAVOK 15/04 Q1019 R34/090060 NOSIG
Conditions at: UKOO (ODESSA/TSENTRALN, UA) observed 0600 UTC 11 May 2021
Temperature: 15.0°C (59°F)
Dewpoint: 4.0°C (39°F) [RH = 48%]
Pressure (altimeter): 30.09 inches Hg (1019.0 mb)
Winds: from the NNW (340 degrees) at 9 MPH (8 knots; 4.1 m/s)
Visibility: 6 or more miles (10+ km)
Ceiling: ceiling and visibility are OK
Clouds: unknown
Weather: no significant weather observed at this time

METAR text: UKOO 110530Z 34004MPS CAVOK 15/05 Q1019 R16/090060 NOSIG
Conditions at: UKOO (ODESSA/TSENTRALN, UA) observed 0530 UTC 11 May 2021
Temperature: 15.0°C (59°F)
Dewpoint: 5.0°C (41°F) [RH = 51%]
Pressure (altimeter): 30.09 inches Hg (1019.0 mb)
Winds: from the NNW (340 degrees) at 9 MPH (8 knots; 4.1 m/s)
Visibility: 6 or more miles (10+ km)
Ceiling: ceiling and visibility are OK
Clouds: unknown
Weather: no significant weather observed at this time

METAR text: UKOO 110500Z 32003MPS CAVOK 13/06 Q1019 R16/090060 NOSIG
Conditions at: UKOO (ODESSA/TSENTRALN, UA) observed 0500 UTC 11 May 2021
Temperature: 13.0°C (55°F)
Dewpoint: 6.0°C (43°F) [RH = 62%]
Pressure (altimeter): 30.09 inches Hg (1019.0 mb)
Winds: from the NW (320 degrees) at 7 MPH (6 knots; 3.1 m/s)
Visibility: 6 or more miles (10+ km)
Ceiling: ceiling and visibility are OK
Clouds: unknown
Weather: no significant weather observed at this time

METAR text: UKOO 110430Z 32003MPS CAVOK 12/06 Q1019 R16/090060 NOSIG
Conditions at: UKOO (ODESSA/TSENTRALN, UA) observed 0430 UTC 11 May 2021
Temperature: 12.0°C (54°F)
Dewpoint: 6.0°C (43°F) [RH = 67%]
Pressure (altimeter): 30.09 inches Hg (1019.0 mb)
Winds: from the NW (320 degrees) at 7 MPH (6 knots; 3.1 m/s)
Visibility: 6 or more miles (10+ km)
Ceiling: ceiling and visibility are OK
Clouds: unknown
Weather: no significant weather observed at this time

METAR text: UKOO 110400Z 33003MPS CAVOK 10/06 Q1019 R16/090060 NOSIG
Conditions at: UKOO (ODESSA/TSENTRALN, UA) observed 0400 UTC 11 May 2021
Temperature: 10.0°C (50°F)
Dewpoint: 6.0°C (43°F) [RH = 76%]
Pressure (altimeter): 30.09 inches Hg (1019.0 mb)
Winds: from the NNW (330 degrees) at 7 MPH (6 knots; 3.1 m/s)
Visibility: 6 or more miles (10+ km)
Ceiling: ceiling and visibility are OK
Clouds: unknown
Weather: no significant weather observed at this time

METAR text: UKOO 110330Z 33003MPS CAVOK 09/05 Q1019 R16/090060 NOSIG
Conditions at: UKOO (ODESSA/TSENTRALN, UA) observed 0330 UTC 11 May 2021
Temperature: 9.0°C (48°F)
Dewpoint: 5.0°C (41°F) [RH = 76%]
Pressure (altimeter): 30.09 inches Hg (1019.0 mb)
Winds: from the NNW (330 degrees) at 7 MPH (6 knots; 3.1 m/s)
Visibility: 6 or more miles (10+ km)
Ceiling: ceiling and visibility are OK
Clouds: unknown
Weather: no significant weather observed at this time

METAR text: UKOO 110300Z 33002MPS CAVOK 07/03 Q1019 R16/090060 NOSIG
Conditions at: UKOO (ODESSA/TSENTRALN, UA) observed 0300 UTC 11 May 2021
Temperature: 7.0°C (45°F)
Dewpoint: 3.0°C (37°F) [RH = 76%]
Pressure (altimeter): 30.09 inches Hg (1019.0 mb)
Winds: from the NNW (330 degrees) at 5 MPH (4 knots; 2.1 m/s)
Visibility: 6 or more miles (10+ km)
Ceiling: ceiling and visibility are OK
Clouds: unknown
Weather: no significant weather observed at this time

METAR text: UKOO 110230Z 32002MPS CAVOK 06/03 Q1019 R16/090060 NOSIG
Conditions at: UKOO (ODESSA/TSENTRALN, UA) observed 0230 UTC 11 May 2021
Temperature: 6.0°C (43°F)
Dewpoint: 3.0°C (37°F) [RH = 81%]
Pressure (altimeter): 30.09 inches Hg (1019.0 mb)
Winds: from the NW (320 degrees) at 5 MPH (4 knots; 2.1 m/s)
Visibility: 6 or more miles (10+ km)
Ceiling: ceiling and visibility are OK
Clouds: unknown
Weather: no significant weather observed at this time

METAR text: UKOO 110200Z 31002MPS CAVOK 06/02 Q1020 R16/090060 NOSIG
Conditions at: UKOO (ODESSA/TSENTRALN, UA) observed 0200 UTC 11 May 2021
Temperature: 6.0°C (43°F)
Dewpoint: 2.0°C (36°F) [RH = 75%]
Pressure (altimeter): 30.12 inches Hg (1020.0 mb)
Winds: from the NW (310 degrees) at 5 MPH (4 knots; 2.1 m/s)
Visibility: 6 or more miles (10+ km)
Ceiling: ceiling and visibility are OK
Clouds: unknown
Weather: no significant weather observed at this time

METAR text: UKOO 110130Z 30002MPS CAVOK 07/02 Q1020 R16/090060 NOSIG
Conditions at: UKOO (ODESSA/TSENTRALN, UA) observed 0130 UTC 11 May 2021
Temperature: 7.0°C (45°F)
Dewpoint: 2.0°C (36°F) [RH = 70%]
Pressure (altimeter): 30.12 inches Hg (1020.0 mb)
Winds: from the WNW (300 degrees) at 5 MPH (4 knots; 2.1 m/s)
Visibility: 6 or more miles (10+ km)
Ceiling: ceiling and visibility are OK
Clouds: unknown
Weather: no significant weather observed at this time

METAR text: UKOO 110100Z 32002MPS CAVOK 08/03 Q1020 R16/090060 NOSIG
Conditions at: UKOO (ODESSA/TSENTRALN, UA) observed 0100 UTC 11 May 2021
Temperature: 8.0°C (46°F)
Dewpoint: 3.0°C (37°F) [RH = 71%]
Pressure (altimeter): 30.12 inches Hg (1020.0 mb)
Winds: from the NW (320 degrees) at 5 MPH (4 knots; 2.1 m/s)
Visibility: 6 or more miles (10+ km)
Ceiling: ceiling and visibility are OK
Clouds: unknown
Weather: no significant weather observed at this time

METAR text: UKOO 110030Z 34003MPS CAVOK 07/03 Q1020 R16/090060 NOSIG
Conditions at: UKOO (ODESSA/TSENTRALN, UA) observed 0030 UTC 11 May 2021
Temperature: 7.0°C (45°F)
Dewpoint: 3.0°C (37°F) [RH = 76%]
Pressure (altimeter): 30.12 inches Hg (1020.0 mb)
Winds: from the NNW (340 degrees) at 7 MPH (6 knots; 3.1 m/s)
Visibility: 6 or more miles (10+ km)
Ceiling: ceiling and visibility are OK
Clouds: unknown
Weather: no significant weather observed at this time

METAR text: UKOO 110000Z 00000MPS CAVOK 08/02 Q1021 R16/090060 NOSIG
Conditions at: UKOO (ODESSA/TSENTRALN, UA) observed 0000 UTC 11 May 2021
Temperature: 8.0°C (46°F)
Dewpoint: 2.0°C (36°F) [RH = 66%]
Pressure (altimeter): 30.15 inches Hg (1021.0 mb)
Winds: calm
Visibility: 6 or more miles (10+ km)
Ceiling: ceiling and visibility are OK
Clouds: unknown
Weather: no significant weather observed at this time

METAR text: UKOO 102330Z 29002MPS CAVOK 09/03 Q1021 R16/090060 NOSIG
Conditions at: UKOO (ODESSA/TSENTRALN, UA) observed 2330 UTC 10 May 2021
Temperature: 9.0°C (48°F)
Dewpoint: 3.0°C (37°F) [RH = 66%]
Pressure (altimeter): 30.15 inches Hg (1021.0 mb)
Winds: from the WNW (290 degrees) at 5 MPH (4 knots; 2.1 m/s)
Visibility: 6 or more miles (10+ km)
Ceiling: ceiling and visibility are OK
Clouds: unknown
Weather: no significant weather observed at this time

METAR text: UKOO 102300Z 29002MPS CAVOK 08/05 Q1021 R16/090060 NOSIG
Conditions at: UKOO (ODESSA/TSENTRALN, UA) observed 2300 UTC 10 May 2021
Temperature: 8.0°C (46°F)
Dewpoint: 5.0°C (41°F) [RH = 81%]
Pressure (altimeter): 30.15 inches Hg (1021.0 mb)
Winds: from the WNW (290 degrees) at 5 MPH (4 knots; 2.1 m/s)
Visibility: 6 or more miles (10+ km)
Ceiling: ceiling and visibility are OK
Clouds: unknown
Weather: no significant weather observed at this time

METAR text: UKOO 102230Z 28002MPS CAVOK 09/05 Q1021 R16/090060 NOSIG
Conditions at: UKOO (ODESSA/TSENTRALN, UA) observed 2230 UTC 10 May 2021
Temperature: 9.0°C (48°F)
Dewpoint: 5.0°C (41°F) [RH = 76%]
Pressure (altimeter): 30.15 inches Hg (1021.0 mb)
Winds: from the W (280 degrees) at 5 MPH (4 knots; 2.1 m/s)
Visibility: 6 or more miles (10+ km)
Ceiling: ceiling and visibility are OK
Clouds: unknown
Weather: no significant weather observed at this time

METAR text: UKOO 102200Z 29002MPS CAVOK 09/05 Q1021 R16/090060 NOSIG
Conditions at: UKOO (ODESSA/TSENTRALN, UA) observed 2200 UTC 10 May 2021
Temperature: 9.0°C (48°F)
Dewpoint: 5.0°C (41°F) [RH = 76%]
Pressure (altimeter): 30.15 inches Hg (1021.0 mb)
Winds: from the WNW (290 degrees) at 5 MPH (4 knots; 2.1 m/s)
Visibility: 6 or more miles (10+ km)
Ceiling: ceiling and visibility are OK
Clouds: unknown
Weather: no significant weather observed at this time

METAR text: UKOO 102130Z 27003MPS CAVOK 09/05 Q1021 R16/090060 NOSIG
Conditions at: UKOO (ODESSA/TSENTRALN, UA) observed 2130 UTC 10 May 2021
Temperature: 9.0°C (48°F)
Dewpoint: 5.0°C (41°F) [RH = 76%]
Pressure (altimeter): 30.15 inches Hg (1021.0 mb)
Winds: from the W (270 degrees) at 7 MPH (6 knots; 3.1 m/s)
Visibility: 6 or more miles (10+ km)
Ceiling: ceiling and visibility are OK
Clouds: unknown
Weather: no significant weather observed at this time

METAR text: UKOO 102100Z 26003MPS CAVOK 09/05 Q1021 R16/090060 NOSIG
Conditions at: UKOO (ODESSA/TSENTRALN, UA) observed 2100 UTC 10 May 2021
Temperature: 9.0°C (48°F)
Dewpoint: 5.0°C (41°F) [RH = 76%]
Pressure (altimeter): 30.15 inches Hg (1021.0 mb)
Winds: from the W (260 degrees) at 7 MPH (6 knots; 3.1 m/s)
Visibility: 6 or more miles (10+ km)
Ceiling: ceiling and visibility are OK
Clouds: unknown
Weather: no significant weather observed at this time

METAR text: UKOO 102030Z 25003MPS CAVOK 09/05 Q1021 R16/090060 NOSIG
Conditions at: UKOO (ODESSA/TSENTRALN, UA) observed 2030 UTC 10 May 2021
Temperature: 9.0°C (48°F)
Dewpoint: 5.0°C (41°F) [RH = 76%]
Pressure (altimeter): 30.15 inches Hg (1021.0 mb)
Winds: from the WSW (250 degrees) at 7 MPH (6 knots; 3.1 m/s)
Visibility: 6 or more miles (10+ km)
Ceiling: ceiling and visibility are OK
Clouds: unknown
Weather: no significant weather observed at this time

METAR text: UKOO 102000Z 25003MPS CAVOK 09/04 Q1022 R16/090060 NOSIG
Conditions at: UKOO (ODESSA/TSENTRALN, UA) observed 2000 UTC 10 May 2021
Temperature: 9.0°C (48°F)
Dewpoint: 4.0°C (39°F) [RH = 71%]
Pressure (altimeter): 30.18 inches Hg (1022.0 mb)
Winds: from the WSW (250 degrees) at 7 MPH (6 knots; 3.1 m/s)
Visibility: 6 or more miles (10+ km)
Ceiling: ceiling and visibility are OK
Clouds: unknown
Weather: no significant weather observed at this time

METAR text: UKOO 101930Z 25003MPS CAVOK 10/03 Q1022 R16/090060 NOSIG
Conditions at: UKOO (ODESSA/TSENTRALN, UA) observed 1930 UTC 10 May 2021
Temperature: 10.0°C (50°F)
Dewpoint: 3.0°C (37°F) [RH = 62%]
Pressure (altimeter): 30.18 inches Hg (1022.0 mb)
Winds: from the WSW (250 degrees) at 7 MPH (6 knots; 3.1 m/s)
Visibility: 6 or more miles (10+ km)
Ceiling: ceiling and visibility are OK
Clouds: unknown
Weather: no significant weather observed at this time

METAR text: UKOO 101900Z 24003MPS CAVOK 10/03 Q1022 R16/090060 NOSIG
Conditions at: UKOO (ODESSA/TSENTRALN, UA) observed 1900 UTC 10 May 2021
Temperature: 10.0°C (50°F)
Dewpoint: 3.0°C (37°F) [RH = 62%]
Pressure (altimeter): 30.18 inches Hg (1022.0 mb)
Winds: from the WSW (240 degrees) at 7 MPH (6 knots; 3.1 m/s)
Visibility: 6 or more miles (10+ km)
Ceiling: ceiling and visibility are OK
Clouds: unknown
Weather: no significant weather observed at this time

METAR text: UKOO 101830Z 24003MPS CAVOK 10/03 Q1022 R16/090060 NOSIG
Conditions at: UKOO (ODESSA/TSENTRALN, UA) observed 1830 UTC 10 May 2021
Temperature: 10.0°C (50°F)
Dewpoint: 3.0°C (37°F) [RH = 62%]
Pressure (altimeter): 30.18 inches Hg (1022.0 mb)
Winds: from the WSW (240 degrees) at 7 MPH (6 knots; 3.1 m/s)
Visibility: 6 or more miles (10+ km)
Ceiling: ceiling and visibility are OK
Clouds: unknown
Weather: no significant weather observed at this time

METAR text: UKOO 101800Z 23003MPS CAVOK 11/03 Q1022 R16/090060 NOSIG
Conditions at: UKOO (ODESSA/TSENTRALN, UA) observed 1800 UTC 10 May 2021
Temperature: 11.0°C (52°F)
Dewpoint: 3.0°C (37°F) [RH = 58%]
Pressure (altimeter): 30.18 inches Hg (1022.0 mb)
Winds: from the SW (230 degrees) at 7 MPH (6 knots; 3.1 m/s)
Visibility: 6 or more miles (10+ km)
Ceiling: ceiling and visibility are OK
Clouds: unknown
Weather: no significant weather observed at this time

METAR text: UKOO 101730Z 22003MPS CAVOK 12/04 Q1022 R16/090060 NOSIG
Conditions at: UKOO (ODESSA/TSENTRALN, UA) observed 1730 UTC 10 May 2021
Temperature: 12.0°C (54°F)
Dewpoint: 4.0°C (39°F) [RH = 58%]
Pressure (altimeter): 30.18 inches Hg (1022.0 mb)
Winds: from the SW (220 degrees) at 7 MPH (6 knots; 3.1 m/s)
Visibility: 6 or more miles (10+ km)
Ceiling: ceiling and visibility are OK
Clouds: unknown
Weather: no significant weather observed at this time

METAR text: UKOO 101700Z 20003MPS CAVOK 13/04 Q1022 R16/090060 NOSIG
Conditions at: UKOO (ODESSA/TSENTRALN, UA) observed 1700 UTC 10 May 2021
Temperature: 13.0°C (55°F)
Dewpoint: 4.0°C (39°F) [RH = 54%]
Pressure (altimeter): 30.18 inches Hg (1022.0 mb)
Winds: from the SSW (200 degrees) at 7 MPH (6 knots; 3.1 m/s)
Visibility: 6 or more miles (10+ km)
Ceiling: ceiling and visibility are OK
Clouds: unknown
Weather: no significant weather observed at this time

METAR text: UKOO 101630Z 21004MPS CAVOK 14/04 Q1022 R16/090060 NOSIG
Conditions at: UKOO (ODESSA/TSENTRALN, UA) observed 1630 UTC 10 May 2021
Temperature: 14.0°C (57°F)
Dewpoint: 4.0°C (39°F) [RH = 51%]
Pressure (altimeter): 30.18 inches Hg (1022.0 mb)
Winds: from the SSW (210 degrees) at 9 MPH (8 knots; 4.1 m/s)
Visibility: 6 or more miles (10+ km)
Ceiling: ceiling and visibility are OK
Clouds: unknown
Weather: no significant weather observed at this time

METAR text: UKOO 101600Z 21005MPS CAVOK 16/03 Q1022 R16/090060 NOSIG
Conditions at: UKOO (ODESSA/TSENTRALN, UA) observed 1600 UTC 10 May 2021
Temperature: 16.0°C (61°F)
Dewpoint: 3.0°C (37°F) [RH = 42%]
Pressure (altimeter): 30.18 inches Hg (1022.0 mb)
Winds: from the SSW (210 degrees) at 12 MPH (10 knots; 5.1 m/s)
Visibility: 6 or more miles (10+ km)
Ceiling: ceiling and visibility are OK
Clouds: unknown
Weather: no significant weather observed at this time

METAR text: UKOO 101530Z 19005MPS 140V220 CAVOK 16/03 Q1022 R16/090060 NOSIG
Conditions at: UKOO (ODESSA/TSENTRALN, UA) observed 1530 UTC 10 May 2021
Temperature: 16.0°C (61°F)
Dewpoint: 3.0°C (37°F) [RH = 42%]
Pressure (altimeter): 30.18 inches Hg (1022.0 mb)
Winds: from the S (190 degrees) at 12 MPH (10 knots; 5.1 m/s)
Visibility: 6 or more miles (10+ km)
Ceiling: ceiling and visibility are OK
Clouds: unknown
Weather: no significant weather observed at this time

METAR text: UKOO 101500Z 19005MPS CAVOK 17/03 Q1023 R16/090060 NOSIG
Conditions at: UKOO (ODESSA/TSENTRALN, UA) observed 1500 UTC 10 May 2021
Temperature: 17.0°C (63°F)
Dewpoint: 3.0°C (37°F) [RH = 39%]
Pressure (altimeter): 30.21 inches Hg (1023.0 mb)
Winds: from the S (190 degrees) at 12 MPH (10 knots; 5.1 m/s)
Visibility: 6 or more miles (10+ km)
Ceiling: ceiling and visibility are OK
Clouds: unknown
Weather: no significant weather observed at this time

METAR text: UKOO 101430Z 16005MPS CAVOK 17/02 Q1023 R16/090060 NOSIG
Conditions at: UKOO (ODESSA/TSENTRALN, UA) observed 1430 UTC 10 May 2021
Temperature: 17.0°C (63°F)
Dewpoint: 2.0°C (36°F) [RH = 36%]
Pressure (altimeter): 30.21 inches Hg (1023.0 mb)
Winds: from the SSE (160 degrees) at 12 MPH (10 knots; 5.1 m/s)
Visibility: 6 or more miles (10+ km)
Ceiling: ceiling and visibility are OK
Clouds: unknown
Weather: no significant weather observed at this time

METAR text: UKOO 101400Z 16006MPS CAVOK 17/03 Q1023 R16/090060 NOSIG
Conditions at: UKOO (ODESSA/TSENTRALN, UA) observed 1400 UTC 10 May 2021
Temperature: 17.0°C (63°F)
Dewpoint: 3.0°C (37°F) [RH = 39%]
Pressure (altimeter): 30.21 inches Hg (1023.0 mb)
Winds: from the SSE (160 degrees) at 14 MPH (12 knots; 6.2 m/s)
Visibility: 6 or more miles (10+ km)
Ceiling: ceiling and visibility are OK
Clouds: unknown
Weather: no significant weather observed at this time

Forecast for: UKOO (ODESSA/TSENTRALN, UA)
Text: TAF UKOO 112305Z 1200/1224 08005G12MPS 2100 -SHRA BR BKN007 SCT015CB
Forecast period: 0000 to 0600 UTC 12 May 2021
Forecast type: FROM: standard forecast or significant change
Winds: from the E (80 degrees) at 12 MPH (10 knots; 5.1 m/s)
gusting to 26 MPH (23 knots; 11.8 m/s)
Visibility: 1.30 miles (2.09 km)
Ceiling: 700 feet AGL
Clouds: broken clouds at 700 feet AGL
scattered clouds at 1500 feet AGL
Weather: -SHRA BR  (light rain showers, mist)
Text: PROB40
Forecast period: 0000 to 0600 UTC 12 May 2021
Forecast type: TEMPORARY: The following changes expected for less than half the time period
Visibility: 0.62 miles (1.00 km)
Ceiling: 400 feet AGL
Clouds: broken clouds at 400 feet AGL
scattered clouds at 1300 feet AGL
Weather: TSRA BR  (rain associated with thunderstorm(s), mist)
Text: TEMPO 1200/1206 1000 TSRA BR BKN004 SCT013CB
Forecast period: 0600 UTC 12 May 2021 to 0000 UTC 13 May 2021
Forecast type: BECOMING: Conditions expected to become as follows by 0700 UTC 12 May 2021
Winds: from the E (100 degrees) at 7 MPH (6 knots; 3.1 m/s)
Visibility: 4 miles (6 km)
Ceiling: 700 feet AGL
Clouds: broken clouds at 700 feet AGL
scattered clouds at 1500 feet AGL
Weather: NSW  (no significant weather)